Time;durP1;ratioP1;P1;durP2;ratioP2;P2;SDS_P1;SDS_P2;PMS_P1;PMS_P2;Temp;Humidity;BMP_temperature;BMP_pressure;BME280_temperature;BME280_humidity;BME280_pressure;Samples;Min_cycle;Max_cycle;Signal;HPM_P1;HPM_P2
2022/07/17 00:00:24;;;;;;;4.82;2.65;;;27.70;43.30;;;;;;5073254;28;20778;-79
2022/07/17 00:02:49;;;;;;;4.75;2.20;;;27.80;43.30;;;;;;5057549;28;20081;-79
2022/07/17 00:05:15;;;;;;;3.85;2.40;;;27.60;43.50;;;;;;5074810;28;20025;-79
2022/07/17 00:07:41;;;;;;;5.15;2.65;;;27.40;43.90;;;;;;5075138;28;20017;-79
2022/07/17 00:10:07;;;;;;;5.72;2.55;;;27.20;44.40;;;;;;5074094;28;20055;-82
2022/07/17 00:12:33;;;;;;;4.43;2.50;;;26.90;44.50;;;;;;5073992;28;20042;-79
2022/07/17 00:14:59;;;;;;;3.83;2.22;;;26.70;44.70;;;;;;5075876;28;20104;-81
2022/07/17 00:17:25;;;;;;;4.47;2.10;;;26.60;44.70;;;;;;5075840;28;20032;-80
2022/07/17 00:19:50;;;;;;;4.72;2.50;;;26.70;44.60;;;;;;5074624;28;20138;-80
2022/07/17 00:22:16;;;;;;;4.43;2.33;;;26.80;44.50;;;;;;5057864;28;20483;-81
2022/07/17 00:24:42;;;;;;;3.38;2.17;;;27.00;44.40;;;;;;5057691;28;20037;-79
2022/07/17 00:27:08;;;;;;;3.63;2.10;;;27.00;44.50;;;;;;5075899;28;20035;-80
2022/07/17 00:29:33;;;;;;;4.00;2.15;;;26.90;45.30;;;;;;5072901;28;20009;-79
2022/07/17 00:31:59;;;;;;;4.38;2.50;;;27.00;44.90;;;;;;5074362;28;20110;-81
2022/07/17 00:34:25;;;;;;;4.88;2.70;;;26.90;44.60;;;;;;5074287;28;20400;-83
2022/07/17 00:36:51;;;;;;;5.00;2.70;;;26.90;44.50;;;;;;5075505;28;20501;-80
2022/07/17 00:39:16;;;;;;;4.47;2.63;;;26.80;44.60;;;;;;5072301;28;20032;-79
2022/07/17 00:41:46;;;;;;;4.88;2.45;;;26.80;44.50;;;;;;5057018;28;20067;-80
2022/07/17 00:44:14;;;;;;;7.25;2.20;;;26.90;44.60;;;;;;5073864;28;20477;-79
2022/07/17 00:46:40;;;;;;;5.65;2.28;;;26.80;44.50;;;;;;5074815;28;20100;-79
2022/07/17 00:49:07;;;;;;;4.05;2.33;;;26.70;45.00;;;;;;5074726;28;20016;-80
2022/07/17 00:51:33;;;;;;;5.10;2.60;;;26.60;44.60;;;;;;5075186;28;20039;-80
2022/07/17 00:54:00;;;;;;;4.53;2.33;;;26.40;44.50;;;;;;5073913;28;20078;-79
2022/07/17 00:56:27;;;;;;;3.85;2.50;;;26.50;44.70;;;;;;5074738;28;20029;-79
2022/07/17 00:58:53;;;;;;;4.28;3.10;;;26.60;44.70;;;;;;5074002;28;20035;-79
2022/07/17 01:01:19;;;;;;;5.32;3.20;;;26.60;44.70;;;;;;5074205;28;20027;-78
2022/07/17 01:03:45;;;;;;;4.15;3.15;;;26.40;44.70;;;;;;5072473;28;20375;-79
2022/07/17 01:06:10;;;;;;;4.65;2.97;;;26.20;44.60;;;;;;5074642;28;20036;-80
2022/07/17 01:08:37;;;;;;;4.35;3.10;;;26.10;44.70;;;;;;5074312;28;20025;-79
2022/07/17 01:11:03;;;;;;;4.35;2.60;;;26.00;44.60;;;;;;5073975;28;20037;-80
2022/07/17 01:13:31;;;;;;;4.97;2.58;;;25.90;44.80;;;;;;5073229;28;20078;-79
2022/07/17 01:15:57;;;;;;;4.75;2.20;;;25.90;44.90;;;;;;5074495;28;20020;-80
2022/07/17 01:18:23;;;;;;;3.50;2.38;;;26.00;44.80;;;;;;5074606;28;20107;-81
2022/07/17 01:20:49;;;;;;;4.80;2.40;;;26.10;44.80;;;;;;5074825;28;20391;-80
2022/07/17 01:23:17;;;;;;;3.83;2.40;;;26.00;44.70;;;;;;5071905;28;20025;-80
2022/07/17 01:25:43;;;;;;;3.67;2.60;;;25.90;45.20;;;;;;5074086;28;20032;-80
2022/07/17 01:28:09;;;;;;;5.07;2.42;;;25.90;45.20;;;;;;5056206;28;20020;-80
2022/07/17 01:30:35;;;;;;;4.10;2.53;;;25.70;45.00;;;;;;5073921;28;20033;-79
2022/07/17 01:33:01;;;;;;;5.45;2.70;;;25.70;45.10;;;;;;5073012;28;20055;-81
2022/07/17 01:35:27;;;;;;;4.63;2.40;;;25.60;45.10;;;;;;5072848;28;20033;-80
2022/07/17 01:37:53;;;;;;;4.32;2.35;;;25.60;45.20;;;;;;5056372;28;20046;-79
2022/07/17 01:40:19;;;;;;;5.57;2.53;;;25.60;45.10;;;;;;5074191;28;20050;-80
2022/07/17 01:42:49;;;;;;;4.90;2.60;;;25.70;45.10;;;;;;5071891;28;20020;-78
2022/07/17 01:45:17;;;;;;;6.60;2.83;;;25.80;45.20;;;;;;5073754;28;20103;-82
2022/07/17 01:47:43;;;;;;;5.68;2.35;;;25.60;45.30;;;;;;5073879;28;20045;-81
2022/07/17 01:50:10;;;;;;;4.05;2.50;;;25.50;45.50;;;;;;5074297;28;20039;-80
2022/07/17 01:52:38;;;;;;;4.35;2.20;;;25.60;45.70;;;;;;5059131;28;20483;-80
2022/07/17 01:55:05;;;;;;;5.93;2.55;;;25.50;45.70;;;;;;5077703;28;20039;-78
2022/07/17 01:57:31;;;;;;;6.45;2.70;;;25.50;46.00;;;;;;5078334;28;20048;-79
2022/07/17 01:59:58;;;;;;;3.83;2.50;;;25.40;45.90;;;;;;5077340;28;20021;-82
2022/07/17 02:02:24;;;;;;;4.35;2.90;;;25.30;46.20;;;;;;5073867;28;20032;-82
2022/07/17 02:04:49;;;;;;;5.18;2.72;;;25.40;46.40;;;;;;5077885;28;20024;-80
2022/07/17 02:07:15;;;;;;;5.32;2.60;;;25.40;46.80;;;;;;5077966;28;20154;-80
2022/07/17 02:09:41;;;;;;;5.88;2.70;;;25.20;47.00;;;;;;5076609;28;20013;-82
2022/07/17 02:12:07;;;;;;;4.40;2.58;;;25.20;47.30;;;;;;5077651;28;20051;-80
2022/07/17 02:14:34;;;;;;;3.90;2.35;;;25.10;47.30;;;;;;5077475;28;20054;-80
2022/07/17 02:16:59;;;;;;;3.70;2.40;;;25.00;47.50;;;;;;5077438;28;20028;-80
2022/07/17 02:19:25;;;;;;;4.22;2.30;;;24.90;47.40;;;;;;5076102;28;20467;-82
2022/07/17 02:21:52;;;;;;;3.95;2.40;;;24.80;47.40;;;;;;5076739;28;20032;-83
2022/07/17 02:24:19;;;;;;;4.72;2.72;;;24.80;47.50;;;;;;5059300;28;20480;-81
2022/07/17 02:26:45;;;;;;;4.00;2.30;;;24.90;47.30;;;;;;5077458;28;20383;-80
2022/07/17 02:29:10;;;;;;;4.25;2.40;;;25.10;46.90;;;;;;5076080;28;20547;-82
2022/07/17 02:31:36;;;;;;;3.90;2.60;;;25.10;46.70;;;;;;5076810;28;20059;-77
2022/07/17 02:34:02;;;;;;;4.05;2.78;;;25.20;46.60;;;;;;5076825;28;20028;-80
2022/07/17 02:36:28;;;;;;;3.20;2.40;;;25.00;46.60;;;;;;5060232;28;20063;-85
2022/07/17 02:38:54;;;;;;;6.07;2.85;;;25.00;46.80;;;;;;5076729;28;20020;-78
2022/07/17 02:41:20;;;;;;;5.70;3.67;;;24.80;47.30;;;;;;5076813;28;20035;-78
2022/07/17 02:43:45;;;;;;;4.70;3.70;;;24.60;47.00;;;;;;5077059;28;20040;-80
2022/07/17 02:46:13;;;;;;;4.82;4.25;;;24.50;46.90;;;;;;5077038;28;20100;-77
2022/07/17 02:48:40;;;;;;;4.63;2.60;;;24.60;47.00;;;;;;5076306;28;20463;-84
2022/07/17 02:51:06;;;;;;;4.75;2.92;;;24.80;46.90;;;;;;5076922;28;20063;-78
2022/07/17 02:53:32;;;;;;;4.30;2.83;;;24.80;46.70;;;;;;5076867;28;20070;-80
2022/07/17 02:55:58;;;;;;;4.72;3.25;;;24.70;46.30;;;;;;5077295;28;20058;-79
2022/07/17 02:58:24;;;;;;;4.95;3.05;;;24.60;46.40;;;;;;5058062;28;20024;-82
2022/07/17 03:00:49;;;;;;;6.03;2.72;;;24.70;46.30;;;;;;5076900;28;20032;-81
2022/07/17 03:03:15;;;;;;;3.83;2.30;;;24.70;46.10;;;;;;5075653;28;20017;-81
2022/07/17 03:05:44;;;;;;;4.80;2.15;;;24.70;46.30;;;;;;5076834;28;20032;-81
2022/07/17 03:08:09;;;;;;;5.80;2.33;;;24.70;46.10;;;;;;5075941;28;21407;-83
2022/07/17 03:10:36;;;;;;;3.75;2.42;;;24.70;46.20;;;;;;5076768;28;20111;-80
2022/07/17 03:13:02;;;;;;;3.97;2.78;;;24.70;46.10;;;;;;5076603;28;20029;-82
2022/07/17 03:15:28;;;;;;;3.40;2.72;;;24.60;46.00;;;;;;5057566;28;20028;-80
2022/07/17 03:17:53;;;;;;;3.33;2.50;;;24.60;46.20;;;;;;5076233;28;20032;-79
2022/07/17 03:20:19;;;;;;;3.85;2.38;;;24.60;45.90;;;;;;5058403;28;20479;-78
2022/07/17 03:22:45;;;;;;;3.58;2.20;;;24.50;45.80;;;;;;5075465;28;20523;-78
2022/07/17 03:25:10;;;;;;;5.32;2.20;;;24.60;46.00;;;;;;5076639;28;20017;-81
2022/07/17 03:27:38;;;;;;;5.75;2.10;;;24.60;46.10;;;;;;5058347;28;20039;-77
2022/07/17 03:30:06;;;;;;;3.40;2.00;;;24.60;45.80;;;;;;5058350;28;20158;-80
2022/07/17 03:32:31;;;;;;;3.63;2.20;;;24.60;46.20;;;;;;5057053;28;20136;-81
2022/07/17 03:34:57;;;;;;;3.30;2.00;;;24.60;46.40;;;;;;5075249;28;20100;-85
2022/07/17 03:37:23;;;;;;;3.53;2.20;;;24.60;46.10;;;;;;5056207;28;20032;-80
2022/07/17 03:39:48;;;;;;;6.55;2.30;;;24.60;46.40;;;;;;5076827;28;20024;-80
2022/07/17 03:42:14;;;;;;;4.32;2.35;;;24.60;46.40;;;;;;5057249;28;20406;-80
2022/07/17 03:44:40;;;;;;;5.50;3.20;;;24.60;46.50;;;;;;5076287;28;20024;-81
2022/07/17 03:47:05;;;;;;;4.18;2.70;;;24.50;46.80;;;;;;5075667;28;20021;-77
2022/07/17 03:49:31;;;;;;;3.75;2.53;;;24.50;46.60;;;;;;5076084;28;20017;-84
2022/07/17 03:51:57;;;;;;;3.95;2.90;;;24.60;46.60;;;;;;5076090;28;20047;-79
2022/07/17 03:54:23;;;;;;;5.03;2.67;;;24.70;46.60;;;;;;5076353;28;20095;-82
2022/07/17 03:56:49;;;;;;;3.55;2.28;;;24.70;46.20;;;;;;5056869;28;20464;-79
2022/07/17 03:59:15;;;;;;;3.30;1.95;;;24.80;45.90;;;;;;5076254;28;20029;-82
2022/07/17 04:01:40;;;;;;;3.20;1.70;;;24.90;45.70;;;;;;5074591;28;20047;-81
2022/07/17 04:04:06;;;;;;;3.90;2.03;;;25.00;45.60;;;;;;5075802;28;20028;-82
2022/07/17 04:06:32;;;;;;;3.28;2.00;;;24.90;45.70;;;;;;5074454;28;20032;-81
2022/07/17 04:08:57;;;;;;;4.05;2.10;;;24.70;46.10;;;;;;5074279;28;20042;-81
2022/07/17 04:11:23;;;;;;;5.40;2.47;;;24.70;46.20;;;;;;5057467;28;20143;-82
2022/07/17 04:13:49;;;;;;;3.80;2.20;;;24.60;46.30;;;;;;5055804;28;20027;-86
2022/07/17 04:16:14;;;;;;;5.05;2.03;;;24.60;46.40;;;;;;5055856;28;20032;-83
2022/07/17 04:18:40;;;;;;;3.47;2.33;;;24.60;46.40;;;;;;5057548;28;20016;-82
2022/07/17 04:21:08;;;;;;;4.65;2.15;;;24.60;46.60;;;;;;5075048;28;20024;-75
2022/07/17 04:23:35;;;;;;;4.82;1.90;;;24.50;46.50;;;;;;5073868;28;20035;-78
2022/07/17 04:26:01;;;;;;;5.20;1.98;;;24.60;46.50;;;;;;5074888;28;20077;-81
2022/07/17 04:28:26;;;;;;;3.72;1.90;;;24.70;46.60;;;;;;5057055;28;20025;-81
2022/07/17 04:30:52;;;;;;;3.72;1.75;;;24.60;46.20;;;;;;5056452;28;20032;-79
2022/07/17 04:33:18;;;;;;;3.30;1.80;;;24.70;46.30;;;;;;5073019;28;20591;-81
2022/07/17 04:35:44;;;;;;;5.10;2.00;;;24.80;46.20;;;;;;5073905;28;20020;-78
2022/07/17 04:38:10;;;;;;;3.03;1.92;;;24.90;46.00;;;;;;5056092;28;20073;-78
2022/07/17 04:40:37;;;;;;;4.38;1.90;;;24.80;46.10;;;;;;5056679;28;20115;-82
2022/07/17 04:43:04;;;;;;;3.35;1.80;;;24.90;46.30;;;;;;5055198;28;20044;-79
2022/07/17 04:45:31;;;;;;;3.47;2.00;;;24.80;46.20;;;;;;5056614;28;20055;-81
2022/07/17 04:47:56;;;;;;;3.35;1.92;;;25.00;46.10;;;;;;5075027;28;20049;-85
2022/07/17 04:50:22;;;;;;;3.90;1.90;;;25.20;46.00;;;;;;5056602;28;20074;-84
2022/07/17 04:52:49;;;;;;;3.55;1.90;;;25.20;46.00;;;;;;5040877;28;20453;-84
2022/07/17 04:55:16;;;;;;;3.83;2.00;;;25.20;46.10;;;;;;5072645;28;20059;-77
2022/07/17 04:57:42;;;;;;;4.00;1.70;;;25.20;46.20;;;;;;5074143;28;20029;-80
2022/07/17 05:00:10;;;;;;;3.58;1.90;;;25.10;46.00;;;;;;5074930;28;20040;-79
2022/07/17 05:02:37;;;;;;;3.08;1.83;;;25.00;46.60;;;;;;5071693;28;20035;-89
2022/07/17 05:05:03;;;;;;;4.15;1.90;;;24.90;46.50;;;;;;5073928;28;20547;-78
2022/07/17 05:07:29;;;;;;;4.57;1.90;;;24.80;46.90;;;;;;5055819;28;20035;-77
2022/07/17 05:09:55;;;;;;;3.25;1.85;;;24.90;46.90;;;;;;5072647;28;20016;-78
2022/07/17 05:12:21;;;;;;;2.60;1.67;;;25.10;46.70;;;;;;5073753;28;20493;-81
2022/07/17 05:14:46;;;;;;;4.20;1.95;;;25.30;46.40;;;;;;5047710;28;20049;-88
2022/07/17 05:17:13;;;;;;;3.22;2.05;;;25.40;46.50;;;;;;5054430;28;20041;-79
2022/07/17 05:19:38;;;;;;;3.90;2.00;;;25.60;46.30;;;;;;5070836;28;20021;-77
2022/07/17 05:22:04;;;;;;;4.18;2.20;;;25.80;46.10;;;;;;5089362;28;20038;-80
2022/07/17 05:24:30;;;;;;;3.10;1.80;;;25.70;46.30;;;;;;5078381;28;20051;-76
2022/07/17 05:26:56;;;;;;;3.47;1.90;;;25.70;46.60;;;;;;5074271;28;20091;-78
2022/07/17 05:29:22;;;;;;;3.15;1.90;;;25.90;46.30;;;;;;5073253;28;20364;-80
2022/07/17 05:31:48;;;;;;;4.18;1.83;;;25.80;46.50;;;;;;5055653;28;20060;-82
2022/07/17 05:34:14;;;;;;;4.50;1.90;;;25.70;46.60;;;;;;5073023;28;20300;-83
2022/07/17 05:36:40;;;;;;;3.55;1.90;;;25.80;46.50;;;;;;5056282;28;20555;-80
2022/07/17 05:39:06;;;;;;;2.90;1.70;;;25.80;46.40;;;;;;5072431;28;20020;-78
2022/07/17 05:41:31;;;;;;;4.05;1.70;;;25.60;46.40;;;;;;5055839;28;20206;-81
2022/07/17 05:43:57;;;;;;;3.50;1.63;;;25.50;46.60;;;;;;5073937;28;20103;-79
2022/07/17 05:46:23;;;;;;;5.47;1.65;;;25.60;46.50;;;;;;5073505;28;20075;-76
2022/07/17 05:48:49;;;;;;;3.08;1.70;;;25.70;46.70;;;;;;5068069;28;20486;-79
2022/07/17 05:51:14;;;;;;;3.10;1.80;;;26.00;46.10;;;;;;5055418;28;20119;-79
2022/07/17 05:53:40;;;;;;;3.58;1.60;;;26.30;46.10;;;;;;5054531;28;20490;-80
2022/07/17 05:56:08;;;;;;;3.75;1.50;;;26.40;46.00;;;;;;5072049;28;20039;-83
2022/07/17 05:58:46;;;;;;;3.28;1.60;;;26.60;45.30;;;;;;5051258;28;20016;-77
2022/07/17 06:01:12;;;;;;;4.10;1.50;;;26.70;45.20;;;;;;5053348;28;20115;-81
2022/07/17 06:03:37;;;;;;;5.53;1.58;;;26.70;44.90;;;;;;4720794;28;10000064;-78
2022/07/17 06:06:03;;;;;;;3.53;1.90;;;26.70;44.40;;;;;;5069637;28;20031;-76
2022/07/17 06:08:29;;;;;;;2.45;1.50;;;26.80;44.50;;;;;;5051021;28;20024;-75
2022/07/17 06:10:54;;;;;;;4.57;1.88;;;27.00;44.70;;;;;;5068583;28;20029;-77
2022/07/17 06:13:20;;;;;;;3.53;1.67;;;27.10;44.10;;;;;;5068925;28;20050;-79
2022/07/17 06:15:46;;;;;;;3.40;1.70;;;27.10;43.80;;;;;;5051675;28;20142;-84
2022/07/17 06:18:12;;;;;;;3.33;1.60;;;27.30;43.90;;;;;;5071069;28;20043;-75
2022/07/17 06:20:37;;;;;;;4.28;1.50;;;27.20;43.80;;;;;;5070785;28;20111;-75
2022/07/17 06:23:03;;;;;;;4.68;1.60;;;26.90;43.20;;;;;;5068655;28;20029;-76
2022/07/17 06:25:29;;;;;;;3.20;1.67;;;26.80;43.30;;;;;;5054167;28;20041;-77
2022/07/17 06:27:54;;;;;;;3.20;1.60;;;27.40;44.00;;;;;;5071587;28;20398;-78
2022/07/17 06:30:20;;;;;;;3.63;1.63;;;27.70;42.10;;;;;;5072428;28;20033;-88
2022/07/17 06:32:46;;;;;;;4.53;1.80;;;27.80;42.70;;;;;;5071092;28;20045;-78
2022/07/17 06:35:12;;;;;;;3.00;1.45;;;28.10;43.10;;;;;;5053493;28;20048;-87
2022/07/17 06:37:37;;;;;;;5.28;1.70;;;28.10;42.10;;;;;;5073269;28;20556;-78
2022/07/17 06:40:05;;;;;;;3.13;1.52;;;28.20;41.40;;;;;;5057795;28;20024;-81
2022/07/17 06:42:31;;;;;;;3.05;1.50;;;28.10;41.90;;;;;;5041154;28;20031;-83
2022/07/17 06:45:01;;;;;;;2.75;1.40;;;27.60;41.70;;;;;;4879478;28;10000473;-81
2022/07/17 06:47:27;;;;;;;7.25;1.40;;;27.40;41.20;;;;;;5074544;28;20236;-80
2022/07/17 06:49:52;;;;;;;3.25;1.55;;;27.50;40.40;;;;;;5075802;28;20472;-83
2022/07/17 06:52:18;;;;;;;3.17;1.40;;;27.70;39.70;;;;;;5074659;28;20036;-79
2022/07/17 06:54:44;;;;;;;3.75;1.40;;;27.90;39.30;;;;;;5075958;28;20027;-79
2022/07/17 06:57:09;;;;;;;3.90;1.50;;;28.00;39.00;;;;;;5075749;28;20032;-76
2022/07/17 06:59:35;;;;;;;3.10;1.50;;;28.10;38.80;;;;;;5075865;28;20025;-89
2022/07/17 07:02:00;;;;;;;3.50;1.48;;;28.20;38.90;;;;;;5076588;28;20025;-82
2022/07/17 07:04:26;;;;;;;3.15;1.50;;;28.40;39.00;;;;;;5057552;28;20039;-83
2022/07/17 07:06:52;;;;;;;3.40;1.50;;;28.30;39.20;;;;;;5048621;28;20035;-80
2022/07/17 07:09:18;;;;;;;3.75;1.42;;;28.40;38.70;;;;;;5070905;28;20028;-84
2022/07/17 07:11:44;;;;;;;3.40;1.30;;;28.70;38.70;;;;;;4721095;28;9999676;-83
2022/07/17 07:14:09;;;;;;;4.40;1.40;;;29.10;38.80;;;;;;5055803;28;20033;-79
2022/07/17 07:16:35;;;;;;;3.60;1.50;;;29.20;38.00;;;;;;5074397;28;20119;-80
2022/07/17 07:19:01;;;;;;;3.45;1.30;;;29.20;38.20;;;;;;5055580;28;20033;-78
2022/07/17 07:21:27;;;;;;;7.75;1.60;;;29.10;38.00;;;;;;4731784;28;10000025;-80
2022/07/17 07:23:54;;;;;;;3.78;1.40;;;29.00;38.90;;;;;;5078832;28;20016;-79
2022/07/17 07:26:19;;;;;;;2.50;1.40;;;28.90;39.50;;;;;;5095519;28;20032;-81
2022/07/17 07:28:46;;;;;;;5.93;1.48;;;28.80;39.40;;;;;;5097033;28;20039;-83
2022/07/17 07:31:12;;;;;;;3.33;1.30;;;29.10;39.30;;;;;;5096741;28;20043;-77
2022/07/17 07:33:39;;;;;;;3.80;1.80;;;29.20;38.40;;;;;;5086688;28;20391;-83
2022/07/17 07:36:05;;;;;;;2.88;1.33;;;29.10;38.60;;;;;;5075733;28;20077;-80
2022/07/17 07:38:32;;;;;;;3.88;1.42;;;28.80;38.20;;;;;;5075216;28;20069;-80
2022/07/17 07:40:57;;;;;;;3.65;1.48;;;28.90;38.20;;;;;;5075723;28;20024;-75
2022/07/17 07:43:23;;;;;;;3.90;1.30;;;28.50;38.40;;;;;;5075844;28;20020;-81
2022/07/17 07:45:49;;;;;;;3.10;1.63;;;28.20;38.60;;;;;;5092089;28;20032;-84
2022/07/17 07:48:15;;;;;;;2.90;1.50;;;28.60;38.60;;;;;;5074978;28;20027;-79
2022/07/17 07:50:40;;;;;;;3.22;1.50;;;28.70;39.00;;;;;;5075407;28;20033;-79
2022/07/17 07:53:07;;;;;;;3.88;1.50;;;29.00;38.30;;;;;;5083401;28;20020;-79
2022/07/17 07:55:34;;;;;;;3.33;1.40;;;28.90;39.00;;;;;;5087511;28;20099;-83
2022/07/17 07:58:10;;;;;;;4.03;2.17;;;28.90;38.30;;;;;;5057392;28;20039;-79
2022/07/17 08:00:36;;;;;;;3.65;1.88;;;29.00;38.60;;;;;;4714482;28;10000030;-80
2022/07/17 08:03:03;;;;;;;4.50;1.50;;;29.10;39.00;;;;;;5055661;28;20040;-78
2022/07/17 08:05:30;;;;;;;4.05;1.50;;;29.10;39.00;;;;;;5072625;28;20035;-80
2022/07/17 08:07:55;;;;;;;3.80;1.42;;;29.30;39.20;;;;;;5053927;28;20025;-77
2022/07/17 08:10:21;;;;;;;4.28;1.90;;;29.30;38.50;;;;;;5071228;28;20016;-79
2022/07/17 08:12:47;;;;;;;2.80;1.50;;;29.10;38.70;;;;;;5077291;28;20027;-80
2022/07/17 08:15:18;;;;;;;2.70;1.40;;;29.20;38.40;;;;;;5072762;28;20031;-79
2022/07/17 08:17:44;;;;;;;3.72;1.55;;;29.20;38.10;;;;;;5068484;28;20032;-79
2022/07/17 08:20:11;;;;;;;4.20;1.50;;;29.10;38.90;;;;;;5053118;28;20032;-77
2022/07/17 08:22:37;;;;;;;4.57;1.50;;;28.70;39.10;;;;;;5072321;28;20059;-81
2022/07/17 08:25:03;;;;;;;3.38;1.40;;;28.90;38.70;;;;;;5072613;28;20076;-76
2022/07/17 08:27:41;;;;;;;3.40;1.60;;;29.20;38.50;;;;;;5071698;28;20155;-75
2022/07/17 08:30:08;;;;;;;5.13;1.55;;;29.30;39.00;;;;;;5052427;28;20056;-79
2022/07/17 08:32:35;;;;;;;6.78;1.98;;;29.30;38.70;;;;;;5071188;28;20055;-85
2022/07/17 08:35:00;;;;;;;4.82;1.83;;;29.50;38.50;;;;;;5055291;28;20032;-88
2022/07/17 08:37:26;;;;;;;4.80;1.52;;;30.10;38.40;;;;;;5056161;28;20024;-79
2022/07/17 08:39:52;;;;;;;5.15;1.52;;;30.40;37.80;;;;;;5072902;28;20028;-79
2022/07/17 08:42:18;;;;;;;5.05;1.60;;;30.50;37.30;;;;;;5063779;28;20024;-79
2022/07/17 08:44:44;;;;;;;2.47;1.40;;;30.50;37.90;;;;;;5053196;28;20111;-83
2022/07/17 08:47:11;;;;;;;2.60;1.40;;;30.10;37.80;;;;;;5074210;28;20032;-82
2022/07/17 08:49:49;;;;;;;3.00;1.40;;;30.30;37.60;;;;;;5074866;28;20025;-81
2022/07/17 08:52:15;;;;;;;3.58;1.40;;;30.60;38.10;;;;;;5072410;28;20029;-82
2022/07/17 08:54:42;;;;;;;3.92;1.42;;;30.40;37.60;;;;;;5093418;28;20103;-76
2022/07/17 08:57:09;;;;;;;6.22;1.60;;;30.30;38.40;;;;;;5089535;28;20032;-83
2022/07/17 08:59:35;;;;;;;6.75;1.92;;;30.40;38.30;;;;;;5056004;28;20150;-76
2022/07/17 09:02:01;;;;;;;4.22;1.35;;;30.70;39.20;;;;;;5072940;28;20036;-78
2022/07/17 09:04:27;;;;;;;4.15;1.58;;;30.80;38.20;;;;;;5072459;28;20032;-79
2022/07/17 09:07:04;;;;;;;4.10;2.20;;;31.10;38.40;;;;;;5073093;28;20048;-81
2022/07/17 09:09:31;;;;;;;3.58;1.50;;;30.80;39.00;;;;;;5074071;28;20464;-82
2022/07/17 09:12:02;;;;;;;2.85;1.45;;;30.50;38.20;;;;;;5071872;28;20039;-80
2022/07/17 09:14:39;;;;;;;2.95;1.40;;;30.60;37.70;;;;;;4723824;28;10000368;-81
2022/07/17 09:17:07;;;;;;;3.88;1.42;;;30.50;38.00;;;;;;5070194;28;20033;-79
2022/07/17 09:19:46;;;;;;;4.40;1.70;;;30.10;38.20;;;;;;5071977;28;20025;-86
2022/07/17 09:22:23;;;;;;;8.13;1.85;;;30.30;39.50;;;;;;5045951;28;20033;-76
2022/07/17 09:24:49;;;;;;;21.77;2.10;;;30.30;37.90;;;;;;5053631;28;20037;-79
2022/07/17 09:27:30;;;;;;;3.90;1.38;;;30.10;38.60;;;;;;5068893;28;20035;-86
2022/07/17 09:30:00;;;;;;;2.88;1.60;;;30.40;38.20;;;;;;5073159;28;20101;-75
2022/07/17 09:32:32;;;;;;;4.28;1.80;;;30.50;38.30;;;;;;5054778;28;20049;-86
2022/07/17 09:35:00;;;;;;;4.05;2.00;;;30.60;38.30;;;;;;5071245;28;20399;-76
2022/07/17 09:37:33;;;;;;;3.40;1.58;;;30.90;38.50;;;;;;5056096;28;20036;-86
2022/07/17 09:40:00;;;;;;;3.97;1.60;;;31.40;37.90;;;;;;5074062;28;20017;-80
2022/07/17 09:42:32;;;;;;;4.07;1.70;;;31.50;37.70;;;;;;5072449;28;20021;-91
2022/07/17 09:45:00;;;;;;;5.40;1.55;;;31.30;37.60;;;;;;5053999;28;20032;-80
2022/07/17 09:47:27;;;;;;;4.38;1.55;;;31.20;36.90;;;;;;5072896;28;20372;-81
2022/07/17 09:49:54;;;;;;;5.28;1.50;;;31.20;36.70;;;;;;5055063;28;20472;-76
2022/07/17 09:52:23;;;;;;;2.65;1.40;;;31.30;37.40;;;;;;5062460;28;20071;-74
2022/07/17 09:54:53;;;;;;;3.33;1.50;;;31.20;37.10;;;;;;5073372;28;20051;-79
2022/07/17 09:57:20;;;;;;;3.95;1.40;;;31.20;37.60;;;;;;5083710;28;20062;-80
2022/07/17 09:59:46;;;;;;;6.13;1.50;;;31.30;38.80;;;;;;5076509;28;20036;-91
2022/07/17 10:02:13;;;;;;;4.40;2.13;;;31.80;38.20;;;;;;5075410;28;20119;-75
2022/07/17 10:04:40;;;;;;;6.35;1.85;;;32.00;37.10;;;;;;5075938;28;20098;-77
2022/07/17 10:07:08;;;;;;;4.30;1.30;;;32.00;37.30;;;;;;5093934;28;20030;-77
2022/07/17 10:09:35;;;;;;;2.80;1.58;;;31.80;36.80;;;;;;5058628;28;20498;-80
2022/07/17 10:12:01;;;;;;;6.30;1.70;;;31.90;37.50;;;;;;5063760;28;20454;-84
2022/07/17 10:14:28;;;;;;;4.72;1.48;;;31.80;36.90;;;;;;5077435;28;20025;-83
2022/07/17 10:17:05;;;;;;;3.17;1.70;;;31.50;36.80;;;;;;5058777;28;20047;-83
2022/07/17 10:19:35;;;;;;;6.35;1.70;;;31.40;37.10;;;;;;5075045;28;20056;-81
2022/07/17 10:22:05;;;;;;;4.28;1.80;;;31.60;37.30;;;;;;5076958;28;20038;-77
2022/07/17 10:24:31;;;;;;;2.72;1.50;;;31.70;36.90;;;;;;5077342;28;20765;-79
2022/07/17 10:27:00;;;;;;;13.82;1.92;;;31.80;36.40;;;;;;5059311;28;20036;-83
2022/07/17 10:29:38;;;;;;;3.92;1.70;;;31.90;36.00;;;;;;5076205;28;20036;-82
2022/07/17 10:32:13;;;;;;;5.85;1.83;;;31.40;36.70;;;;;;5077053;28;20067;-85
2022/07/17 10:34:40;;;;;;;3.97;1.50;;;31.30;36.10;;;;;;5059415;28;20382;-91
2022/07/17 10:37:21;;;;;;;4.15;1.50;;;31.10;36.40;;;;;;5060383;28;20417;-90
2022/07/17 10:39:55;;;;;;;5.25;1.50;;;31.30;36.20;;;;;;5059324;28;20454;-80
2022/07/17 10:43:00;;;;;;;3.85;1.85;;;31.70;37.00;;;;;;5058877;28;20058;-90
2022/07/17 10:45:39;;;;;;;4.82;1.60;;;31.50;35.90;;;;;;4998329;28;20600;-81
2022/07/17 10:48:09;;;;;;;5.07;1.40;;;31.80;36.60;;;;;;4999102;28;20045;-77
2022/07/17 10:50:36;;;;;;;3.03;1.83;;;31.70;36.10;;;;;;4997949;28;20440;-78
2022/07/17 10:53:08;;;;;;;2.55;1.50;;;32.00;35.40;;;;;;4998410;28;20281;-79
2022/07/17 10:55:36;;;;;;;2.95;1.33;;;32.50;35.70;;;;;;4999775;28;20069;-84
2022/07/17 10:58:02;;;;;;;4.30;1.77;;;33.30;36.60;;;;;;4998300;28;20022;-83
2022/07/17 11:00:28;;;;;;;3.72;1.50;;;33.00;35.40;;;;;;5014943;28;20089;-79
2022/07/17 11:02:54;;;;;;;3.92;2.20;;;32.70;34.90;;;;;;5015875;28;20034;-80
2022/07/17 11:05:21;;;;;;;3.63;1.70;;;32.70;35.10;;;;;;4997646;28;20041;-77
2022/07/17 11:08:01;;;;;;;4.13;1.27;;;32.60;35.00;;;;;;5015870;28;20026;-80
2022/07/17 11:10:28;;;;;;;2.80;1.40;;;32.60;35.90;;;;;;4998942;28;20086;-79
2022/07/17 11:12:55;;;;;;;5.35;1.77;;;32.80;35.90;;;;;;5014442;28;20033;-78
2022/07/17 11:15:22;;;;;;;4.68;1.50;;;32.70;34.80;;;;;;5026307;28;20039;-80
2022/07/17 11:17:48;;;;;;;3.53;1.40;;;32.80;35.60;;;;;;5059209;28;20429;-85
2022/07/17 11:20:17;;;;;;;4.43;1.30;;;32.90;35.20;;;;;;5076059;28;20020;-85
2022/07/17 11:22:44;;;;;;;3.38;1.60;;;32.80;36.00;;;;;;5075890;28;20020;-89
2022/07/17 11:25:11;;;;;;;4.22;1.38;;;32.80;35.00;;;;;;5059025;28;20391;-89
2022/07/17 11:27:38;;;;;;;4.03;1.80;;;33.00;35.70;;;;;;4358486;28;10000280;-84
2022/07/17 11:30:10;;;;;;;4.22;1.55;;;33.30;34.90;;;;;;5074936;28;20467;-87
2022/07/17 11:32:38;;;;;;;3.90;1.50;;;33.30;35.60;;;;;;5058765;28;20507;-79
2022/07/17 11:35:18;;;;;;;5.53;2.20;;;33.30;36.30;;;;;;5076435;28;20027;-87
2022/07/17 11:37:44;;;;;;;;;;;32.80;35.30;;;;;;5076700;28;20029;-88
2022/07/17 11:40:10;;;;;;;3.05;1.40;;;32.60;35.40;;;;;;5058225;28;19910;-86
2022/07/17 11:42:35;;;;;;;3.85;1.40;;;32.80;35.60;;;;;;5077000;28;20036;-81
2022/07/17 11:45:01;;;;;;;7.20;1.60;;;33.10;35.60;;;;;;5075472;28;20024;-84
2022/07/17 11:47:27;;;;;;;4.35;1.58;;;33.20;35.70;;;;;;5075847;28;20078;-83
2022/07/17 11:50:12;;;;;;;2.90;1.40;;;33.30;35.70;;;;;;5058742;28;20360;-79
2022/07/17 11:52:48;;;;;;;7.55;2.03;;;33.30;35.40;;;;;;5059069;28;20454;-91
2022/07/17 11:55:14;;;;;;;3.22;1.80;;;33.00;35.40;;;;;;5075537;28;20033;-88
2022/07/17 11:57:48;;;;;;;3.30;2.17;;;32.70;35.60;;;;;;5058630;28;20364;-86
2022/07/17 12:00:16;;;;;;;5.03;1.70;;;32.80;34.60;;;;;;5075892;28;20021;-84
2022/07/17 12:02:43;;;;;;;3.30;1.50;;;33.00;36.60;;;;;;5076223;28;20028;-87
2022/07/17 12:05:10;;;;;;;2.67;1.63;;;32.90;36.10;;;;;;5057706;28;20033;-78
2022/07/17 12:07:53;;;;;;;3.95;1.52;;;33.20;35.30;;;;;;5076414;28;20035;-89
2022/07/17 12:10:24;;;;;;;3.42;1.70;;;33.50;35.80;;;;;;5058477;28;20031;-88
2022/07/17 12:12:58;;;;;;;4.78;1.55;;;33.80;35.60;;;;;;5075996;28;20021;-85
2022/07/17 12:15:50;;;;;;;3.08;1.85;;;33.70;35.50;;;;;;5076002;28;20467;-85
2022/07/17 12:18:28;;;;;;;3.70;1.70;;;33.70;35.20;;;;;;5071629;28;20037;-77
2022/07/17 12:20:56;;;;;;;4.43;1.90;;;33.70;34.80;;;;;;5075493;28;20055;-81
2022/07/17 12:23:38;;;;;;;4.03;1.70;;;33.40;35.20;;;;;;5075565;28;20033;-80
2022/07/17 12:26:12;;;;;;;3.35;1.80;;;33.10;35.60;;;;;;5057850;28;20059;-86
2022/07/17 12:28:38;;;;;;;5.18;2.00;;;33.00;35.00;;;;;;5057805;28;20513;-88
2022/07/17 12:31:05;;;;;;;3.33;1.50;;;33.00;35.10;;;;;;5075748;28;20060;-79
2022/07/17 12:33:30;;;;;;;3.13;1.75;;;33.20;36.80;;;;;;5075250;28;20025;-79
2022/07/17 12:35:56;;;;;;;2.70;1.58;;;33.40;35.00;;;;;;5073944;28;20035;-82
2022/07/17 12:38:22;;;;;;;3.40;1.40;;;33.30;35.10;;;;;;5057867;28;20025;-83
2022/07/17 12:40:47;;;;;;;6.38;1.92;;;33.20;36.20;;;;;;5057342;28;20510;-89
2022/07/17 12:43:13;;;;;;;3.22;1.60;;;33.30;35.10;;;;;;5074348;28;20031;-81
2022/07/17 12:45:39;;;;;;;7.03;1.83;;;33.50;35.10;;;;;;5074975;28;20112;-89